sensor_id;sensor_type;location;lat;lon;timestamp;pressure;altitude;pressure_sealevel;temperature;humidity
62712;BME280;48772;55.586;37.730;2023-05-02T00:02:13;99747.09;;;4.63;100.00
62712;BME280;48772;55.586;37.730;2023-05-02T00:04:39;99768.66;;;4.71;100.00
62712;BME280;48772;55.586;37.730;2023-05-02T00:07:05;99786.72;;;4.78;100.00
62712;BME280;48772;55.586;37.730;2023-05-02T00:09:31;99773.34;;;4.66;100.00
62712;BME280;48772;55.586;37.730;2023-05-02T00:11:57;99790.72;;;4.70;100.00
62712;BME280;48772;55.586;37.730;2023-05-02T00:14:23;99757.53;;;4.49;100.00
62712;BME280;48772;55.586;37.730;2023-05-02T00:16:49;99794.53;;;4.64;100.00
62712;BME280;48772;55.586;37.730;2023-05-02T00:19:15;99793.00;;;4.60;100.00
62712;BME280;48772;55.586;37.730;2023-05-02T00:21:40;99799.28;;;4.58;100.00
62712;BME280;48772;55.586;37.730;2023-05-02T00:24:06;99793.56;;;4.50;100.00
62712;BME280;48772;55.586;37.730;2023-05-02T00:26:32;99789.38;;;4.46;100.00
62712;BME280;48772;55.586;37.730;2023-05-02T00:28:58;99780.25;;;4.36;100.00
62712;BME280;48772;55.586;37.730;2023-05-02T00:31:24;99810.50;;;4.46;100.00
62712;BME280;48772;55.586;37.730;2023-05-02T00:33:50;99811.53;;;4.43;100.00
62712;BME280;48772;55.586;37.730;2023-05-02T00:36:17;99804.00;;;4.36;100.00
62712;BME280;48772;55.586;37.730;2023-05-02T00:38:44;99774.22;;;4.17;100.00
62712;BME280;48772;55.586;37.730;2023-05-02T00:41:10;99779.84;;;4.11;100.00
62712;BME280;48772;55.586;37.730;2023-05-02T00:43:36;99798.75;;;4.19;100.00
62712;BME280;48772;55.586;37.730;2023-05-02T00:46:06;99787.84;;;4.09;100.00
62712;BME280;48772;55.586;37.730;2023-05-02T00:48:33;99820.19;;;4.30;100.00
62712;BME280;48772;55.586;37.730;2023-05-02T00:51:02;99822.97;;;4.27;100.00
62712;BME280;48772;55.586;37.730;2023-05-02T00:53:30;99825.75;;;4.24;100.00
62712;BME280;48772;55.586;37.730;2023-05-02T00:55:57;99793.50;;;4.02;100.00
62712;BME280;48772;55.586;37.730;2023-05-02T00:58:25;99814.16;;;4.11;100.00
62712;BME280;48772;55.586;37.730;2023-05-02T01:11:56;99850.78;;;4.00;100.00
62712;BME280;48772;55.586;37.730;2023-05-02T01:14:32;99830.66;;;3.80;100.00
62712;BME280;48772;55.586;37.730;2023-05-02T01:17:02;99826.31;;;3.79;100.00
62712;BME280;48772;55.586;37.730;2023-05-02T01:19:35;99850.94;;;3.97;100.00
62712;BME280;48772;55.586;37.730;2023-05-02T01:22:05;99858.69;;;4.00;100.00
62712;BME280;48772;55.586;37.730;2023-05-02T01:27:27;99869.69;;;3.91;100.00
62712;BME280;48772;55.586;37.730;2023-05-02T01:29:56;99852.84;;;3.76;100.00
62712;BME280;48772;55.586;37.730;2023-05-02T01:32:24;99847.81;;;3.72;100.00
62712;BME280;48772;55.586;37.730;2023-05-02T01:34:52;99856.31;;;3.77;100.00
62712;BME280;48772;55.586;37.730;2023-05-02T01:37:19;99878.53;;;3.90;100.00
62712;BME280;48772;55.586;37.730;2023-05-02T01:39:47;99846.25;;;3.68;100.00
62712;BME280;48772;55.586;37.730;2023-05-02T01:42:14;99886.47;;;3.90;100.00
62712;BME280;48772;55.586;37.730;2023-05-02T01:44:43;99865.88;;;3.79;100.00
62712;BME280;48772;55.586;37.730;2023-05-02T01:47:11;99879.63;;;3.86;100.00
62712;BME280;48772;55.586;37.730;2023-05-02T01:49:37;99896.72;;;3.96;100.00
62712;BME280;48772;55.586;37.730;2023-05-02T01:52:07;99897.63;;;3.95;100.00
62712;BME280;48772;55.586;37.730;2023-05-02T01:54:36;99903.53;;;4.00;100.00
62712;BME280;48772;55.586;37.730;2023-05-02T01:57:05;99878.06;;;3.82;100.00
62712;BME280;48772;55.586;37.730;2023-05-02T01:59:33;99915.31;;;3.93;100.00
62712;BME280;48772;55.586;37.730;2023-05-02T02:02:01;99906.38;;;3.78;100.00
62712;BME280;48772;55.586;37.730;2023-05-02T02:04:28;99924.47;;;3.86;100.00
62712;BME280;48772;55.586;37.730;2023-05-02T02:07:01;99907.38;;;3.76;100.00
62712;BME280;48772;55.586;37.730;2023-05-02T02:09:29;99935.03;;;3.86;100.00
62712;BME280;48772;55.586;37.730;2023-05-02T02:12:05;99901.47;;;3.71;100.00
62712;BME280;48772;55.586;37.730;2023-05-02T02:14:34;99935.03;;;3.86;100.00
62712;BME280;48772;55.586;37.730;2023-05-02T02:17:05;99928.19;;;3.82;100.00
62712;BME280;48772;55.586;37.730;2023-05-02T02:19:36;99849.59;;;3.35;100.00
62712;BME280;48772;55.586;37.730;2023-05-02T02:22:05;99931.59;;;3.84;100.00
62712;BME280;48772;55.586;37.730;2023-05-02T02:24:34;99940.16;;;3.89;100.00
62712;BME280;48772;55.586;37.730;2023-05-02T02:27:01;99945.09;;;3.95;100.00
62712;BME280;48772;55.586;37.730;2023-05-02T02:29:27;99943.13;;;4.00;100.00
62712;BME280;48772;55.586;37.730;2023-05-02T02:31:53;99955.09;;;4.07;100.00
62712;BME280;48772;55.586;37.730;2023-05-02T02:34:19;99946.84;;;3.96;100.00
62712;BME280;48772;55.586;37.730;2023-05-02T02:36:58;99947.16;;;4.07;100.00
62712;BME280;48772;55.586;37.730;2023-05-02T02:47:29;99981.47;;;4.24;100.00
62712;BME280;48772;55.586;37.730;2023-05-02T02:52:56;99977.00;;;4.26;100.00
62712;BME280;48772;55.586;37.730;2023-05-02T02:55:56;99983.75;;;4.31;100.00
62712;BME280;48772;55.586;37.730;2023-05-02T03:01:10;99977.28;;;4.54;100.00
62712;BME280;48772;55.586;37.730;2023-05-02T03:03:41;99950.28;;;4.49;100.00
62712;BME280;48772;55.586;37.730;2023-05-02T03:06:07;99950.44;;;4.63;100.00
62712;BME280;48772;55.586;37.730;2023-05-02T03:08:43;99990.44;;;4.89;100.00
62712;BME280;48772;55.586;37.730;2023-05-02T03:11:14;99988.31;;;4.96;100.00
62712;BME280;48772;55.586;37.730;2023-05-02T03:13:41;99951.78;;;4.87;100.00
62712;BME280;48772;55.586;37.730;2023-05-02T03:16:31;99986.25;;;5.18;100.00
62712;BME280;48772;55.586;37.730;2023-05-02T03:18:59;99983.09;;;5.27;100.00
62712;BME280;48772;55.586;37.730;2023-05-02T03:21:26;99998.00;;;5.45;100.00
62712;BME280;48772;55.586;37.730;2023-05-02T03:23:53;100000.16;;;5.54;100.00
62712;BME280;48772;55.586;37.730;2023-05-02T03:26:19;99994.69;;;5.57;100.00
62712;BME280;48772;55.586;37.730;2023-05-02T03:28:46;99991.63;;;5.64;100.00
62712;BME280;48772;55.586;37.730;2023-05-02T03:31:17;99965.34;;;5.61;100.00
62712;BME280;48772;55.586;37.730;2023-05-02T03:33:44;100003.47;;;5.90;100.00
62712;BME280;48772;55.586;37.730;2023-05-02T03:36:10;100001.91;;;6.01;100.00
62712;BME280;48772;55.586;37.730;2023-05-02T03:38:38;99989.94;;;6.10;100.00
62712;BME280;48772;55.586;37.730;2023-05-02T03:41:07;99979.34;;;6.10;100.00
62712;BME280;48772;55.586;37.730;2023-05-02T03:43:33;100004.44;;;6.34;100.00
62712;BME280;48772;55.586;37.730;2023-05-02T03:46:04;100021.16;;;6.50;100.00
62712;BME280;48772;55.586;37.730;2023-05-02T03:48:34;99995.69;;;6.47;100.00
62712;BME280;48772;55.586;37.730;2023-05-02T03:51:01;100022.34;;;6.60;100.00
62712;BME280;48772;55.586;37.730;2023-05-02T03:53:29;100022.81;;;6.66;100.00
62712;BME280;48772;55.586;37.730;2023-05-02T03:55:57;100015.53;;;6.70;100.00
62712;BME280;48772;55.586;37.730;2023-05-02T03:58:32;100007.59;;;6.70;100.00
62712;BME280;48772;55.586;37.730;2023-05-02T04:00:58;100030.25;;;6.89;100.00
62712;BME280;48772;55.586;37.730;2023-05-02T04:03:26;99998.16;;;6.80;100.00
62712;BME280;48772;55.586;37.730;2023-05-02T04:05:53;100036.94;;;7.11;100.00
62712;BME280;48772;55.586;37.730;2023-05-02T04:08:19;100038.94;;;7.21;100.00
62712;BME280;48772;55.586;37.730;2023-05-02T04:10:45;100046.19;;;7.33;100.00
62712;BME280;48772;55.586;37.730;2023-05-02T04:13:12;100038.59;;;7.41;100.00
62712;BME280;48772;55.586;37.730;2023-05-02T04:15:44;100049.97;;;7.57;100.00
62712;BME280;48772;55.586;37.730;2023-05-02T04:18:10;100042.59;;;7.62;100.00
62712;BME280;48772;55.586;37.730;2023-05-02T04:20:36;100019.81;;;7.58;100.00
62712;BME280;48772;55.586;37.730;2023-05-02T04:23:02;100038.66;;;7.82;100.00
62712;BME280;48772;55.586;37.730;2023-05-02T04:25:29;100043.03;;;7.97;100.00
62712;BME280;48772;55.586;37.730;2023-05-02T04:27:58;100037.78;;;8.09;100.00
62712;BME280;48772;55.586;37.730;2023-05-02T04:30:24;100034.84;;;8.14;100.00
62712;BME280;48772;55.586;37.730;2023-05-02T04:32:59;100049.63;;;8.32;100.00
62712;BME280;48772;55.586;37.730;2023-05-02T04:35:29;100037.94;;;8.34;100.00
62712;BME280;48772;55.586;37.730;2023-05-02T04:37:56;100047.63;;;8.35;100.00
62712;BME280;48772;55.586;37.730;2023-05-02T04:40:22;100049.50;;;8.47;100.00
62712;BME280;48772;55.586;37.730;2023-05-02T04:42:53;100057.81;;;8.55;100.00
62712;BME280;48772;55.586;37.730;2023-05-02T04:45:21;100059.13;;;8.62;100.00
62712;BME280;48772;55.586;37.730;2023-05-02T04:47:48;100058.91;;;8.65;100.00
62712;BME280;48772;55.586;37.730;2023-05-02T04:50:14;100067.38;;;8.84;100.00
62712;BME280;48772;55.586;37.730;2023-05-02T04:52:40;100071.13;;;8.94;100.00
62712;BME280;48772;55.586;37.730;2023-05-02T04:55:06;100034.94;;;8.92;100.00
62712;BME280;48772;55.586;37.730;2023-05-02T04:57:33;100054.75;;;9.00;100.00
62712;BME280;48772;55.586;37.730;2023-05-02T05:00:00;100032.63;;;9.00;100.00
62712;BME280;48772;55.586;37.730;2023-05-02T05:02:33;100070.16;;;9.34;100.00
62712;BME280;48772;55.586;37.730;2023-05-02T05:05:00;100055.66;;;9.38;100.00
62712;BME280;48772;55.586;37.730;2023-05-02T05:07:30;100043.94;;;9.41;100.00
62712;BME280;48772;55.586;37.730;2023-05-02T05:09:56;100061.81;;;9.51;100.00
62712;BME280;48772;55.586;37.730;2023-05-02T05:12:25;100043.94;;;9.53;100.00
62712;BME280;48772;55.586;37.730;2023-05-02T05:14:51;100061.81;;;9.64;100.00
62712;BME280;48772;55.586;37.730;2023-05-02T05:17:19;100041.19;;;9.67;100.00
62712;BME280;48772;55.586;37.730;2023-05-02T05:19:46;100047.53;;;9.90;100.00
62712;BME280;48772;55.586;37.730;2023-05-02T05:22:11;100062.19;;;10.21;100.00
62712;BME280;48772;55.586;37.730;2023-05-02T05:24:37;100053.59;;;10.17;100.00
62712;BME280;48772;55.586;37.730;2023-05-02T05:27:04;100068.97;;;10.37;100.00
62712;BME280;48772;55.586;37.730;2023-05-02T05:29:31;100072.47;;;10.50;100.00
62712;BME280;48772;55.586;37.730;2023-05-02T05:31:58;100074.28;;;10.50;100.00
62712;BME280;48772;55.586;37.730;2023-05-02T05:34:24;100046.41;;;10.54;100.00
62712;BME280;48772;55.586;37.730;2023-05-02T05:36:54;100071.50;;;10.75;100.00
62712;BME280;48772;55.586;37.730;2023-05-02T05:39:20;100052.72;;;10.76;100.00
62712;BME280;48772;55.586;37.730;2023-05-02T05:41:49;100054.31;;;10.79;100.00
62712;BME280;48772;55.586;37.730;2023-05-02T05:44:16;100064.91;;;10.91;100.00
62712;BME280;48772;55.586;37.730;2023-05-02T05:46:43;100061.41;;;11.02;96.74
62712;BME280;48772;55.586;37.730;2023-05-02T05:49:10;100054.53;;;11.10;96.46
62712;BME280;48772;55.586;37.730;2023-05-02T05:51:38;100069.53;;;11.35;89.21
62712;BME280;48772;55.586;37.730;2023-05-02T05:54:03;100050.34;;;11.30;89.16
62712;BME280;48772;55.586;37.730;2023-05-02T05:56:30;100056.41;;;11.32;83.29
62712;BME280;48772;55.586;37.730;2023-05-02T05:59:06;100065.34;;;11.54;85.37
62712;BME280;48772;55.586;37.730;2023-05-02T06:01:32;100069.41;;;11.82;84.13
62712;BME280;48772;55.586;37.730;2023-05-02T06:03:58;100075.50;;;11.95;76.31
62712;BME280;48772;55.586;37.730;2023-05-02T06:06:25;100037.69;;;11.88;69.63
62712;BME280;48772;55.586;37.730;2023-05-02T06:08:51;100033.56;;;11.84;63.85
62712;BME280;48772;55.586;37.730;2023-05-02T06:11:17;100052.16;;;11.97;67.28
62712;BME280;48772;55.586;37.730;2023-05-02T06:13:43;100057.88;;;12.03;66.16
62712;BME280;48772;55.586;37.730;2023-05-02T06:16:09;100065.72;;;12.27;67.46
62712;BME280;48772;55.586;37.730;2023-05-02T06:18:54;100057.44;;;12.41;67.68
62712;BME280;48772;55.586;37.730;2023-05-02T06:21:20;100023.78;;;12.38;62.66
62712;BME280;48772;55.586;37.730;2023-05-02T06:23:46;100035.03;;;12.64;60.93
62712;BME280;48772;55.586;37.730;2023-05-02T06:26:11;100064.84;;;12.91;58.47
62712;BME280;48772;55.586;37.730;2023-05-02T06:28:37;100068.69;;;12.77;56.71
62712;BME280;48772;55.586;37.730;2023-05-02T06:31:21;100064.88;;;12.80;56.19
62712;BME280;48772;55.586;37.730;2023-05-02T06:33:47;100063.75;;;12.93;55.38
62712;BME280;48772;55.586;37.730;2023-05-02T06:36:13;100067.66;;;13.21;57.32
62712;BME280;48772;55.586;37.730;2023-05-02T06:38:39;100049.59;;;13.34;56.87
62712;BME280;48772;55.586;37.730;2023-05-02T06:41:05;100056.13;;;13.41;55.06
62712;BME280;48772;55.586;37.730;2023-05-02T06:43:31;100069.47;;;13.52;57.66
62712;BME280;48772;55.586;37.730;2023-05-02T06:45:57;100061.34;;;13.63;56.78
62712;BME280;48772;55.586;37.730;2023-05-02T06:48:23;100062.94;;;13.75;56.82
62712;BME280;48772;55.586;37.730;2023-05-02T06:50:50;100066.59;;;13.95;54.88
62712;BME280;48772;55.586;37.730;2023-05-02T06:53:16;100053.03;;;13.96;53.16
62712;BME280;48772;55.586;37.730;2023-05-02T06:55:43;100040.81;;;13.83;50.19
62712;BME280;48772;55.586;37.730;2023-05-02T06:58:10;100029.19;;;13.93;51.95
62712;BME280;48772;55.586;37.730;2023-05-02T07:00:36;100033.06;;;14.10;54.76
62712;BME280;48772;55.586;37.730;2023-05-02T07:03:02;100036.13;;;14.35;52.15
62712;BME280;48772;55.586;37.730;2023-05-02T07:05:28;100073.31;;;14.59;47.70
62712;BME280;48772;55.586;37.730;2023-05-02T07:07:55;100069.09;;;14.56;45.65
62712;BME280;48772;55.586;37.730;2023-05-02T07:10:21;100036.03;;;14.16;47.72
62712;BME280;48772;55.586;37.730;2023-05-02T07:12:47;100032.84;;;14.22;46.39
62712;BME280;48772;55.586;37.730;2023-05-02T07:15:13;100066.69;;;14.72;46.94
62712;BME280;48772;55.586;37.730;2023-05-02T07:17:50;100045.41;;;14.80;47.43
62712;BME280;48772;55.586;37.730;2023-05-02T07:20:15;100060.50;;;14.81;45.72
62712;BME280;48772;55.586;37.730;2023-05-02T07:22:41;100054.00;;;14.93;45.09
62712;BME280;48772;55.586;37.730;2023-05-02T07:25:08;100044.38;;;15.19;43.43
62712;BME280;48772;55.586;37.730;2023-05-02T07:27:34;100057.56;;;15.41;42.27
62712;BME280;48772;55.586;37.730;2023-05-02T07:29:59;100027.16;;;15.41;43.44
62712;BME280;48772;55.586;37.730;2023-05-02T07:32:26;100052.72;;;15.64;41.82
62712;BME280;48772;55.586;37.730;2023-05-02T07:34:52;100059.41;;;15.50;40.37
62712;BME280;48772;55.586;37.730;2023-05-02T07:37:19;100067.63;;;15.39;38.59
62712;BME280;48772;55.586;37.730;2023-05-02T07:39:45;100070.16;;;15.31;37.73
62712;BME280;48772;55.586;37.730;2023-05-02T07:42:11;100051.63;;;15.09;37.26
62712;BME280;48772;55.586;37.730;2023-05-02T07:44:37;100044.25;;;15.11;37.96
62712;BME280;48772;55.586;37.730;2023-05-02T07:47:03;100052.19;;;15.41;38.37
62712;BME280;48772;55.586;37.730;2023-05-02T07:49:29;100056.88;;;15.85;38.48
62712;BME280;48772;55.586;37.730;2023-05-02T07:51:56;100051.66;;;15.93;36.75
62712;BME280;48772;55.586;37.730;2023-05-02T07:54:22;100019.69;;;15.81;37.08
62712;BME280;48772;55.586;37.730;2023-05-02T07:56:50;100022.59;;;15.97;36.82
62712;BME280;48772;55.586;37.730;2023-05-02T07:59:16;100026.19;;;16.15;38.61
62712;BME280;48772;55.586;37.730;2023-05-02T08:01:42;100049.06;;;16.28;36.98
62712;BME280;48772;55.586;37.730;2023-05-02T08:04:10;100043.97;;;15.33;36.13
62712;BME280;48772;55.586;37.730;2023-05-02T08:06:36;100033.78;;;15.46;36.42
62712;BME280;48772;55.586;37.730;2023-05-02T08:09:02;100028.44;;;15.83;36.38
62712;BME280;48772;55.586;37.730;2023-05-02T08:11:28;100027.78;;;16.08;37.34
62712;BME280;48772;55.586;37.730;2023-05-02T08:13:54;100047.16;;;16.11;34.56
62712;BME280;48772;55.586;37.730;2023-05-02T08:16:20;100038.16;;;16.03;34.30
62712;BME280;48772;55.586;37.730;2023-05-02T08:18:46;100035.13;;;16.06;36.18
62712;BME280;48772;55.586;37.730;2023-05-02T08:21:12;100020.81;;;16.42;33.72
62712;BME280;48772;55.586;37.730;2023-05-02T08:23:40;100001.09;;;16.51;35.55
62712;BME280;48772;55.586;37.730;2023-05-02T08:26:06;100036.59;;;16.82;34.29
62712;BME280;48772;55.586;37.730;2023-05-02T08:28:35;100035.97;;;16.88;35.12
62712;BME280;48772;55.586;37.730;2023-05-02T08:31:00;100041.66;;;17.20;35.08
62712;BME280;48772;55.586;37.730;2023-05-02T08:33:26;100043.81;;;17.34;34.90
62712;BME280;48772;55.586;37.730;2023-05-02T08:35:52;100014.69;;;17.55;33.91
62712;BME280;48772;55.586;37.730;2023-05-02T08:38:18;100032.03;;;17.78;33.95
62712;BME280;48772;55.586;37.730;2023-05-02T08:40:44;100030.94;;;17.96;33.56
62712;BME280;48772;55.586;37.730;2023-05-02T08:43:11;100014.03;;;17.86;32.56
62712;BME280;48772;55.586;37.730;2023-05-02T08:45:42;100032.22;;;17.84;32.15
62712;BME280;48772;55.586;37.730;2023-05-02T08:48:11;100020.09;;;17.88;31.92
62712;BME280;48772;55.586;37.730;2023-05-02T08:50:40;99999.41;;;17.97;32.51
62712;BME280;48772;55.586;37.730;2023-05-02T08:53:10;100015.06;;;18.27;32.63
62712;BME280;48772;55.586;37.730;2023-05-02T08:55:38;100017.09;;;18.33;31.94
62712;BME280;48772;55.586;37.730;2023-05-02T08:58:06;100021.41;;;18.51;31.94
62712;BME280;48772;55.586;37.730;2023-05-02T09:00:37;100021.91;;;18.39;30.72
62712;BME280;48772;55.586;37.730;2023-05-02T09:03:29;100016.16;;;18.42;31.26
62712;BME280;48772;55.586;37.730;2023-05-02T09:08:33;99991.69;;;18.43;29.68
62712;BME280;48772;55.586;37.730;2023-05-02T09:11:00;100022.69;;;18.89;30.16
62712;BME280;48772;55.586;37.730;2023-05-02T09:13:28;100016.78;;;19.17;30.00
62712;BME280;48772;55.586;37.730;2023-05-02T09:15:59;100015.00;;;19.34;29.20
62712;BME280;48772;55.586;37.730;2023-05-02T09:18:31;100008.22;;;19.46;28.42
62712;BME280;48772;55.586;37.730;2023-05-02T09:20:58;100002.78;;;19.30;27.80
62712;BME280;48772;55.586;37.730;2023-05-02T09:28:54;100004.47;;;19.15;27.53
62712;BME280;48772;55.586;37.730;2023-05-02T09:31:33;100008.13;;;18.66;28.64
62712;BME280;48772;55.586;37.730;2023-05-02T09:34:12;100002.47;;;19.25;28.22
62712;BME280;48772;55.586;37.730;2023-05-02T09:36:40;99987.56;;;19.13;27.37
62712;BME280;48772;55.586;37.730;2023-05-02T09:39:11;99991.47;;;19.42;26.61
62712;BME280;48772;55.586;37.730;2023-05-02T09:41:42;99991.97;;;19.30;26.83
62712;BME280;48772;55.586;37.730;2023-05-02T09:44:15;99995.38;;;19.32;27.00
62712;BME280;48772;55.586;37.730;2023-05-02T09:46:47;99974.75;;;19.39;27.66
62712;BME280;48772;55.586;37.730;2023-05-02T09:49:13;99974.72;;;19.15;26.64
62712;BME280;48772;55.586;37.730;2023-05-02T09:51:39;99994.81;;;19.12;27.16
62712;BME280;48772;55.586;37.730;2023-05-02T09:54:05;99970.66;;;19.43;26.39
62712;BME280;48772;55.586;37.730;2023-05-02T09:56:51;99980.63;;;19.59;26.00
62712;BME280;48772;55.586;37.730;2023-05-02T09:59:23;99969.25;;;19.79;26.23
62712;BME280;48772;55.586;37.730;2023-05-02T10:02:00;99950.94;;;19.89;25.82
62712;BME280;48772;55.586;37.730;2023-05-02T10:04:27;99963.75;;;20.11;27.57
62712;BME280;48772;55.586;37.730;2023-05-02T10:06:56;99969.53;;;20.39;25.98
62712;BME280;48772;55.586;37.730;2023-05-02T10:09:22;99970.16;;;20.10;26.74
62712;BME280;48772;55.586;37.730;2023-05-02T10:11:53;99967.47;;;20.41;25.77
62712;BME280;48772;55.586;37.730;2023-05-02T10:14:21;99938.41;;;20.57;25.33
62712;BME280;48772;55.586;37.730;2023-05-02T10:20:05;99970.47;;;20.07;24.28
62712;BME280;48772;55.586;37.730;2023-05-02T10:22:35;99965.78;;;20.01;24.55
62712;BME280;48772;55.586;37.730;2023-05-02T10:25:02;99939.75;;;20.31;24.43
62712;BME280;48772;55.586;37.730;2023-05-02T10:27:32;99939.81;;;20.53;25.42
62712;BME280;48772;55.586;37.730;2023-05-02T10:29:59;99954.53;;;20.81;25.12
62712;BME280;48772;55.586;37.730;2023-05-02T10:32:28;99959.09;;;20.81;24.85
62712;BME280;48772;55.586;37.730;2023-05-02T10:34:56;99958.22;;;20.80;25.29
62712;BME280;48772;55.586;37.730;2023-05-02T10:37:26;99958.38;;;20.87;25.91
62712;BME280;48772;55.586;37.730;2023-05-02T10:39:54;99952.53;;;20.75;25.24
62712;BME280;48772;55.586;37.730;2023-05-02T10:42:20;99945.53;;;20.81;26.05
62712;BME280;48772;55.586;37.730;2023-05-02T10:44:46;99954.16;;;20.84;24.81
62712;BME280;48772;55.586;37.730;2023-05-02T10:47:18;99907.28;;;20.53;24.46
62712;BME280;48772;55.586;37.730;2023-05-02T10:49:50;99921.59;;;20.17;22.93
62712;BME280;48772;55.586;37.730;2023-05-02T10:52:31;99930.53;;;20.09;24.10
62712;BME280;48772;55.586;37.730;2023-05-02T10:55:20;99948.50;;;20.02;24.13
62712;BME280;48772;55.586;37.730;2023-05-02T11:00:30;99921.72;;;19.77;24.54
62712;BME280;48772;55.586;37.730;2023-05-02T11:02:57;99943.09;;;20.10;25.21
62712;BME280;48772;55.586;37.730;2023-05-02T11:05:23;99929.78;;;20.31;25.12
62712;BME280;48772;55.586;37.730;2023-05-02T11:10:41;99926.03;;;20.85;24.09
62712;BME280;48772;55.586;37.730;2023-05-02T11:13:07;99927.75;;;20.56;23.61
62712;BME280;48772;55.586;37.730;2023-05-02T11:18:09;99904.03;;;20.58;24.23
62712;BME280;48772;55.586;37.730;2023-05-02T11:20:41;99920.91;;;20.68;24.18
62712;BME280;48772;55.586;37.730;2023-05-02T11:26:19;99907.53;;;20.66;23.75
62712;BME280;48772;55.586;37.730;2023-05-02T11:28:46;99900.47;;;20.80;24.38
62712;BME280;48772;55.586;37.730;2023-05-02T11:31:51;99905.41;;;20.76;23.46
62712;BME280;48772;55.586;37.730;2023-05-02T11:34:17;99891.56;;;20.49;23.45
62712;BME280;48772;55.586;37.730;2023-05-02T11:36:43;99910.53;;;20.71;23.54
62712;BME280;48772;55.586;37.730;2023-05-02T11:39:18;99903.81;;;20.67;24.54
62712;BME280;48772;55.586;37.730;2023-05-02T11:41:45;99899.84;;;20.55;24.10
62712;BME280;48772;55.586;37.730;2023-05-02T11:44:12;99905.88;;;20.35;23.85
62712;BME280;48772;55.586;37.730;2023-05-02T11:46:39;99866.34;;;19.87;23.92
62712;BME280;48772;55.586;37.730;2023-05-02T11:49:06;99883.28;;;20.20;24.15
62712;BME280;48772;55.586;37.730;2023-05-02T11:51:38;99871.38;;;19.98;23.82
62712;BME280;48772;55.586;37.730;2023-05-02T11:54:04;99896.97;;;20.26;23.65
62712;BME280;48772;55.586;37.730;2023-05-02T11:56:32;99874.84;;;20.45;23.33
62712;BME280;48772;55.586;37.730;2023-05-02T11:58:59;99877.66;;;20.52;23.38
62712;BME280;48772;55.586;37.730;2023-05-02T12:01:25;99884.03;;;20.81;23.82
62712;BME280;48772;55.586;37.730;2023-05-02T12:04:03;99867.53;;;20.68;22.81
62712;BME280;48772;55.586;37.730;2023-05-02T12:06:29;99887.66;;;20.51;23.25
62712;BME280;48772;55.586;37.730;2023-05-02T12:09:08;99882.81;;;20.16;23.37
62712;BME280;48772;55.586;37.730;2023-05-02T12:11:35;99878.47;;;20.30;23.38
62712;BME280;48772;55.586;37.730;2023-05-02T12:14:03;99876.38;;;20.09;23.48
62712;BME280;48772;55.586;37.730;2023-05-02T12:16:30;99856.44;;;20.10;23.92
62712;BME280;48772;55.586;37.730;2023-05-02T12:18:57;99876.06;;;20.35;23.89
62712;BME280;48772;55.586;37.730;2023-05-02T12:21:28;99880.75;;;20.18;23.47
62712;BME280;48772;55.586;37.730;2023-05-02T12:23:55;99871.03;;;20.01;23.87
62712;BME280;48772;55.586;37.730;2023-05-02T12:26:25;99863.56;;;20.11;23.77
62712;BME280;48772;55.586;37.730;2023-05-02T12:28:57;99867.75;;;20.14;24.00
62712;BME280;48772;55.586;37.730;2023-05-02T12:31:24;99868.59;;;20.14;24.11
62712;BME280;48772;55.586;37.730;2023-05-02T12:33:50;99835.19;;;19.91;24.79
62712;BME280;48772;55.586;37.730;2023-05-02T12:36:19;99853.00;;;19.86;24.61
62712;BME280;48772;55.586;37.730;2023-05-02T12:38:50;99852.06;;;20.01;24.83
62712;BME280;48772;55.586;37.730;2023-05-02T12:41:38;99865.84;;;20.22;24.65
62712;BME280;48772;55.586;37.730;2023-05-02T12:44:08;99836.97;;;20.07;25.58
62712;BME280;48772;55.586;37.730;2023-05-02T12:46:34;99855.59;;;19.71;24.93
62712;BME280;48772;55.586;37.730;2023-05-02T12:51:27;99857.94;;;19.74;25.55
62712;BME280;48772;55.586;37.730;2023-05-02T12:53:53;99857.00;;;19.59;25.36
62712;BME280;48772;55.586;37.730;2023-05-02T12:56:19;99843.28;;;19.61;25.69
62712;BME280;48772;55.586;37.730;2023-05-02T12:58:46;99863.88;;;19.23;25.78
62712;BME280;48772;55.586;37.730;2023-05-02T13:01:13;99861.78;;;19.41;25.80
62712;BME280;48772;55.586;37.730;2023-05-02T13:03:40;99844.84;;;19.55;25.61
62712;BME280;48772;55.586;37.730;2023-05-02T13:06:07;99842.47;;;19.52;26.25
62712;BME280;48772;55.586;37.730;2023-05-02T13:08:33;99847.66;;;19.31;26.03
62712;BME280;48772;55.586;37.730;2023-05-02T13:11:03;99854.25;;;19.28;26.36
62712;BME280;48772;55.586;37.730;2023-05-02T13:13:29;99838.47;;;19.40;26.16
62712;BME280;48772;55.586;37.730;2023-05-02T13:15:55;99851.31;;;19.46;26.67
62712;BME280;48772;55.586;37.730;2023-05-02T13:18:21;99839.88;;;19.28;26.50
62712;BME280;48772;55.586;37.730;2023-05-02T13:20:48;99857.09;;;19.11;26.75
62712;BME280;48772;55.586;37.730;2023-05-02T13:23:14;99846.34;;;18.87;26.94
62712;BME280;48772;55.586;37.730;2023-05-02T13:25:41;99810.03;;;18.73;26.84
62712;BME280;48772;55.586;37.730;2023-05-02T13:28:07;99836.00;;;19.14;26.66
62712;BME280;48772;55.586;37.730;2023-05-02T13:30:34;99834.75;;;19.41;26.38
62712;BME280;48772;55.586;37.730;2023-05-02T13:33:00;99803.31;;;19.40;26.39
62712;BME280;48772;55.586;37.730;2023-05-02T13:35:26;99833.09;;;19.24;26.61
62712;BME280;48772;55.586;37.730;2023-05-02T13:37:52;99830.72;;;19.29;27.06
62712;BME280;48772;55.586;37.730;2023-05-02T13:40:18;99840.88;;;19.11;26.53
62712;BME280;48772;55.586;37.730;2023-05-02T13:42:45;99826.75;;;18.85;26.88
62712;BME280;48772;55.586;37.730;2023-05-02T13:45:11;99824.31;;;19.14;27.27